sensor_id;sensor_type;location;lat;lon;timestamp;P1;durP1;ratioP1;P2;durP2;ratioP2
3718;SDS011;1875;52.492;6.860;2023-04-02T00:02:24;16.83;;;12.60;;
3718;SDS011;1875;52.492;6.860;2023-04-02T00:08:19;13.50;;;8.93;;
3718;SDS011;1875;52.492;6.860;2023-04-02T00:10:52;15.37;;;11.27;;
3718;SDS011;1875;52.492;6.860;2023-04-02T00:13:23;11.57;;;8.60;;
3718;SDS011;1875;52.492;6.860;2023-04-02T00:15:55;16.27;;;11.07;;
3718;SDS011;1875;52.492;6.860;2023-04-02T00:18:24;14.13;;;10.73;;
3718;SDS011;1875;52.492;6.860;2023-04-02T00:20:55;14.43;;;7.73;;
3718;SDS011;1875;52.492;6.860;2023-04-02T00:23:29;10.10;;;6.63;;
3718;SDS011;1875;52.492;6.860;2023-04-02T00:25:56;10.70;;;6.93;;
3718;SDS011;1875;52.492;6.860;2023-04-02T00:28:24;12.77;;;8.23;;
3718;SDS011;1875;52.492;6.860;2023-04-02T00:30:53;12.03;;;8.77;;
3718;SDS011;1875;52.492;6.860;2023-04-02T00:33:22;9.50;;;6.03;;
3718;SDS011;1875;52.492;6.860;2023-04-02T00:35:54;10.57;;;6.17;;
3718;SDS011;1875;52.492;6.860;2023-04-02T00:38:23;7.03;;;5.10;;
3718;SDS011;1875;52.492;6.860;2023-04-02T00:40:54;12.13;;;6.83;;
3718;SDS011;1875;52.492;6.860;2023-04-02T00:43:23;7.30;;;4.90;;
3718;SDS011;1875;52.492;6.860;2023-04-02T00:45:53;8.33;;;5.63;;
3718;SDS011;1875;52.492;6.860;2023-04-02T00:48:30;10.37;;;6.73;;
3718;SDS011;1875;52.492;6.860;2023-04-02T00:51:09;14.50;;;9.53;;
3718;SDS011;1875;52.492;6.860;2023-04-02T00:53:39;16.77;;;9.33;;
3718;SDS011;1875;52.492;6.860;2023-04-02T00:56:11;9.33;;;6.77;;
3718;SDS011;1875;52.492;6.860;2023-04-02T00:58:41;12.27;;;8.63;;
3718;SDS011;1875;52.492;6.860;2023-04-02T01:01:14;14.43;;;8.33;;
3718;SDS011;1875;52.492;6.860;2023-04-02T01:03:51;9.53;;;6.40;;
3718;SDS011;1875;52.492;6.860;2023-04-02T01:06:27;13.00;;;8.27;;
3718;SDS011;1875;52.492;6.860;2023-04-02T01:09:02;11.47;;;7.77;;
3718;SDS011;1875;52.492;6.860;2023-04-02T01:11:44;13.67;;;7.53;;
3718;SDS011;1875;52.492;6.860;2023-04-02T01:14:21;12.90;;;8.83;;
3718;SDS011;1875;52.492;6.860;2023-04-02T01:16:59;14.43;;;9.67;;
3718;SDS011;1875;52.492;6.860;2023-04-02T01:19:38;14.17;;;9.87;;
3718;SDS011;1875;52.492;6.860;2023-04-02T01:22:18;13.27;;;10.27;;
3718;SDS011;1875;52.492;6.860;2023-04-02T01:24:48;11.13;;;6.87;;
3718;SDS011;1875;52.492;6.860;2023-04-02T01:27:17;13.40;;;6.10;;
3718;SDS011;1875;52.492;6.860;2023-04-02T01:29:50;9.27;;;6.10;;
3718;SDS011;1875;52.492;6.860;2023-04-02T01:32:21;9.37;;;6.53;;
3718;SDS011;1875;52.492;6.860;2023-04-02T01:34:50;10.03;;;5.80;;
3718;SDS011;1875;52.492;6.860;2023-04-02T01:37:21;10.00;;;6.43;;
3718;SDS011;1875;52.492;6.860;2023-04-02T01:39:59;12.73;;;6.40;;
3718;SDS011;1875;52.492;6.860;2023-04-02T01:42:35;9.53;;;5.57;;
3718;SDS011;1875;52.492;6.860;2023-04-02T01:45:07;11.07;;;6.60;;
3718;SDS011;1875;52.492;6.860;2023-04-02T01:47:36;11.43;;;8.23;;
3718;SDS011;1875;52.492;6.860;2023-04-02T01:50:15;13.10;;;9.63;;
3718;SDS011;1875;52.492;6.860;2023-04-02T01:52:49;12.73;;;8.20;;
3718;SDS011;1875;52.492;6.860;2023-04-02T01:55:20;10.33;;;7.53;;
3718;SDS011;1875;52.492;6.860;2023-04-02T01:57:52;11.23;;;6.70;;
3718;SDS011;1875;52.492;6.860;2023-04-02T02:00:21;12.53;;;7.37;;
3718;SDS011;1875;52.492;6.860;2023-04-02T02:02:49;11.93;;;7.50;;
3718;SDS011;1875;52.492;6.860;2023-04-02T02:05:19;6.93;;;5.00;;
3718;SDS011;1875;52.492;6.860;2023-04-02T02:07:48;5.50;;;3.60;;
3718;SDS011;1875;52.492;6.860;2023-04-02T02:10:17;9.70;;;4.10;;
3718;SDS011;1875;52.492;6.860;2023-04-02T02:12:48;6.27;;;3.90;;
3718;SDS011;1875;52.492;6.860;2023-04-02T02:15:17;9.00;;;3.23;;
3718;SDS011;1875;52.492;6.860;2023-04-02T02:17:48;12.30;;;3.33;;
3718;SDS011;1875;52.492;6.860;2023-04-02T02:20:16;5.13;;;3.13;;
3718;SDS011;1875;52.492;6.860;2023-04-02T02:22:45;9.03;;;3.27;;
3718;SDS011;1875;52.492;6.860;2023-04-02T02:25:14;6.67;;;2.77;;
3718;SDS011;1875;52.492;6.860;2023-04-02T02:27:48;4.80;;;3.60;;
3718;SDS011;1875;52.492;6.860;2023-04-02T02:30:23;9.10;;;3.47;;
3718;SDS011;1875;52.492;6.860;2023-04-02T02:32:56;4.63;;;2.80;;
3718;SDS011;1875;52.492;6.860;2023-04-02T02:35:28;7.80;;;3.33;;
3718;SDS011;1875;52.492;6.860;2023-04-02T02:38:01;6.10;;;2.90;;
3718;SDS011;1875;52.492;6.860;2023-04-02T02:40:46;6.43;;;2.90;;
3718;SDS011;1875;52.492;6.860;2023-04-02T02:43:16;2.77;;;1.93;;
3718;SDS011;1875;52.492;6.860;2023-04-02T02:45:44;5.93;;;2.37;;
3718;SDS011;1875;52.492;6.860;2023-04-02T02:48:14;4.23;;;1.70;;
3718;SDS011;1875;52.492;6.860;2023-04-02T02:50:44;2.57;;;1.73;;
3718;SDS011;1875;52.492;6.860;2023-04-02T02:53:16;2.47;;;1.43;;
3718;SDS011;1875;52.492;6.860;2023-04-02T02:55:46;3.27;;;1.53;;
3718;SDS011;1875;52.492;6.860;2023-04-02T02:58:18;8.83;;;2.40;;
3718;SDS011;1875;52.492;6.860;2023-04-02T03:00:48;4.30;;;1.60;;
3718;SDS011;1875;52.492;6.860;2023-04-02T03:03:18;8.53;;;2.33;;
3718;SDS011;1875;52.492;6.860;2023-04-02T03:05:49;10.03;;;1.63;;
3718;SDS011;1875;52.492;6.860;2023-04-02T03:08:20;1.37;;;1.27;;
3718;SDS011;1875;52.492;6.860;2023-04-02T03:10:53;1.40;;;1.30;;
3718;SDS011;1875;52.492;6.860;2023-04-02T03:13:23;5.63;;;2.10;;
3718;SDS011;1875;52.492;6.860;2023-04-02T03:15:56;4.87;;;1.70;;
3718;SDS011;1875;52.492;6.860;2023-04-02T03:18:31;6.13;;;2.17;;
3718;SDS011;1875;52.492;6.860;2023-04-02T03:21:05;2.63;;;1.60;;
3718;SDS011;1875;52.492;6.860;2023-04-02T03:23:38;5.83;;;1.90;;
3718;SDS011;1875;52.492;6.860;2023-04-02T03:26:09;4.17;;;1.63;;
3718;SDS011;1875;52.492;6.860;2023-04-02T03:28:40;14.73;;;2.50;;
3718;SDS011;1875;52.492;6.860;2023-04-02T03:31:11;8.70;;;1.50;;
3718;SDS011;1875;52.492;6.860;2023-04-02T03:33:44;6.50;;;2.07;;
3718;SDS011;1875;52.492;6.860;2023-04-02T03:36:15;6.40;;;1.97;;
3718;SDS011;1875;52.492;6.860;2023-04-02T03:38:48;6.70;;;1.63;;
3718;SDS011;1875;52.492;6.860;2023-04-02T03:41:18;4.83;;;1.77;;
3718;SDS011;1875;52.492;6.860;2023-04-02T03:43:49;8.57;;;2.93;;
3718;SDS011;1875;52.492;6.860;2023-04-02T03:46:21;2.30;;;1.57;;
3718;SDS011;1875;52.492;6.860;2023-04-02T03:48:53;9.80;;;1.67;;
3718;SDS011;1875;52.492;6.860;2023-04-02T03:51:22;2.83;;;1.43;;
3718;SDS011;1875;52.492;6.860;2023-04-02T03:53:51;5.90;;;2.30;;
3718;SDS011;1875;52.492;6.860;2023-04-02T03:56:21;4.07;;;1.70;;
3718;SDS011;1875;52.492;6.860;2023-04-02T03:58:54;5.57;;;2.10;;
3718;SDS011;1875;52.492;6.860;2023-04-02T04:01:30;6.90;;;2.83;;
3718;SDS011;1875;52.492;6.860;2023-04-02T04:04:03;2.33;;;1.50;;
3718;SDS011;1875;52.492;6.860;2023-04-02T04:06:33;3.80;;;1.57;;
3718;SDS011;1875;52.492;6.860;2023-04-02T04:09:06;5.23;;;2.20;;
3718;SDS011;1875;52.492;6.860;2023-04-02T04:11:35;6.80;;;1.93;;
3718;SDS011;1875;52.492;6.860;2023-04-02T04:14:06;7.00;;;1.87;;
3718;SDS011;1875;52.492;6.860;2023-04-02T04:16:40;8.20;;;2.50;;
3718;SDS011;1875;52.492;6.860;2023-04-02T04:19:13;8.47;;;2.03;;
3718;SDS011;1875;52.492;6.860;2023-04-02T04:21:44;8.03;;;2.57;;
3718;SDS011;1875;52.492;6.860;2023-04-02T04:24:15;5.93;;;1.73;;
3718;SDS011;1875;52.492;6.860;2023-04-02T04:26:46;5.07;;;2.37;;
3718;SDS011;1875;52.492;6.860;2023-04-02T04:29:24;3.70;;;2.03;;
3718;SDS011;1875;52.492;6.860;2023-04-02T04:32:07;3.00;;;2.30;;
3718;SDS011;1875;52.492;6.860;2023-04-02T04:34:41;7.33;;;2.30;;
3718;SDS011;1875;52.492;6.860;2023-04-02T04:37:15;6.37;;;2.50;;
3718;SDS011;1875;52.492;6.860;2023-04-02T04:39:48;7.10;;;2.40;;
3718;SDS011;1875;52.492;6.860;2023-04-02T04:42:18;7.60;;;1.93;;
3718;SDS011;1875;52.492;6.860;2023-04-02T04:44:48;4.90;;;2.00;;
3718;SDS011;1875;52.492;6.860;2023-04-02T04:47:19;9.27;;;2.97;;
3718;SDS011;1875;52.492;6.860;2023-04-02T04:49:53;6.07;;;1.97;;
3718;SDS011;1875;52.492;6.860;2023-04-02T04:52:23;3.53;;;2.27;;
3718;SDS011;1875;52.492;6.860;2023-04-02T04:54:52;12.10;;;3.13;;
3718;SDS011;1875;52.492;6.860;2023-04-02T04:57:26;4.37;;;2.33;;
3718;SDS011;1875;52.492;6.860;2023-04-02T04:59:57;4.83;;;2.00;;
3718;SDS011;1875;52.492;6.860;2023-04-02T05:02:34;6.27;;;2.30;;
3718;SDS011;1875;52.492;6.860;2023-04-02T05:05:14;9.37;;;2.47;;
3718;SDS011;1875;52.492;6.860;2023-04-02T05:07:43;8.80;;;3.13;;
3718;SDS011;1875;52.492;6.860;2023-04-02T05:10:14;9.60;;;1.93;;
3718;SDS011;1875;52.492;6.860;2023-04-02T05:12:47;6.53;;;2.13;;
3718;SDS011;1875;52.492;6.860;2023-04-02T05:15:19;8.80;;;2.03;;
3718;SDS011;1875;52.492;6.860;2023-04-02T05:17:50;6.87;;;2.30;;
3718;SDS011;1875;52.492;6.860;2023-04-02T05:20:23;5.03;;;2.57;;
3718;SDS011;1875;52.492;6.860;2023-04-02T05:22:54;4.87;;;1.77;;
3718;SDS011;1875;52.492;6.860;2023-04-02T05:25:24;7.37;;;3.23;;
3718;SDS011;1875;52.492;6.860;2023-04-02T05:27:55;5.40;;;2.00;;
3718;SDS011;1875;52.492;6.860;2023-04-02T05:30:39;3.13;;;2.03;;
3718;SDS011;1875;52.492;6.860;2023-04-02T05:33:21;6.70;;;3.03;;
3718;SDS011;1875;52.492;6.860;2023-04-02T05:35:54;4.63;;;2.30;;
3718;SDS011;1875;52.492;6.860;2023-04-02T05:38:25;2.63;;;1.83;;
3718;SDS011;1875;52.492;6.860;2023-04-02T05:40:57;3.80;;;2.20;;
3718;SDS011;1875;52.492;6.860;2023-04-02T05:43:27;3.90;;;1.97;;
3718;SDS011;1875;52.492;6.860;2023-04-02T05:46:00;8.80;;;2.67;;
3718;SDS011;1875;52.492;6.860;2023-04-02T05:48:31;7.27;;;2.00;;
3718;SDS011;1875;52.492;6.860;2023-04-02T05:51:02;4.27;;;2.30;;
3718;SDS011;1875;52.492;6.860;2023-04-02T05:53:32;4.80;;;2.70;;
3718;SDS011;1875;52.492;6.860;2023-04-02T05:56:02;4.80;;;2.27;;
3718;SDS011;1875;52.492;6.860;2023-04-02T05:58:33;4.13;;;2.60;;
3718;SDS011;1875;52.492;6.860;2023-04-02T06:01:05;4.17;;;2.30;;
3718;SDS011;1875;52.492;6.860;2023-04-02T06:03:40;7.73;;;1.40;;
3718;SDS011;1875;52.492;6.860;2023-04-02T06:06:14;6.77;;;2.97;;
3718;SDS011;1875;52.492;6.860;2023-04-02T06:08:47;4.10;;;1.93;;
3718;SDS011;1875;52.492;6.860;2023-04-02T06:11:19;7.83;;;2.33;;
3718;SDS011;1875;52.492;6.860;2023-04-02T06:13:48;4.97;;;2.57;;
3718;SDS011;1875;52.492;6.860;2023-04-02T06:16:16;6.30;;;2.10;;
3718;SDS011;1875;52.492;6.860;2023-04-02T06:18:46;8.30;;;2.80;;
3718;SDS011;1875;52.492;6.860;2023-04-02T06:21:15;6.90;;;1.40;;
3718;SDS011;1875;52.492;6.860;2023-04-02T06:23:44;4.27;;;1.93;;
3718;SDS011;1875;52.492;6.860;2023-04-02T06:26:17;3.80;;;1.73;;
3718;SDS011;1875;52.492;6.860;2023-04-02T06:28:48;4.57;;;1.60;;
3718;SDS011;1875;52.492;6.860;2023-04-02T06:31:23;3.10;;;1.50;;
3718;SDS011;1875;52.492;6.860;2023-04-02T06:33:53;8.33;;;2.67;;
3718;SDS011;1875;52.492;6.860;2023-04-02T06:36:23;6.17;;;2.00;;
3718;SDS011;1875;52.492;6.860;2023-04-02T06:38:51;3.77;;;1.83;;
3718;SDS011;1875;52.492;6.860;2023-04-02T06:41:21;6.63;;;2.17;;
3718;SDS011;1875;52.492;6.860;2023-04-02T06:43:51;3.27;;;1.93;;
3718;SDS011;1875;52.492;6.860;2023-04-02T06:46:21;2.27;;;1.67;;
3718;SDS011;1875;52.492;6.860;2023-04-02T06:48:54;3.70;;;1.60;;
3718;SDS011;1875;52.492;6.860;2023-04-02T06:51:25;2.70;;;1.83;;
3718;SDS011;1875;52.492;6.860;2023-04-02T06:53:54;5.17;;;2.17;;
3718;SDS011;1875;52.492;6.860;2023-04-02T06:56:24;3.97;;;1.67;;
3718;SDS011;1875;52.492;6.860;2023-04-02T06:58:57;5.27;;;2.00;;
3718;SDS011;1875;52.492;6.860;2023-04-02T07:01:27;6.50;;;2.33;;
3718;SDS011;1875;52.492;6.860;2023-04-02T07:03:56;3.57;;;1.97;;
3718;SDS011;1875;52.492;6.860;2023-04-02T07:06:24;5.47;;;2.50;;
3718;SDS011;1875;52.492;6.860;2023-04-02T07:08:53;4.03;;;1.90;;
3718;SDS011;1875;52.492;6.860;2023-04-02T07:11:21;2.73;;;1.87;;
3718;SDS011;1875;52.492;6.860;2023-04-02T07:13:49;10.57;;;2.37;;
3718;SDS011;1875;52.492;6.860;2023-04-02T07:16:17;6.87;;;2.17;;
3718;SDS011;1875;52.492;6.860;2023-04-02T07:18:47;4.47;;;1.97;;
3718;SDS011;1875;52.492;6.860;2023-04-02T07:21:15;5.40;;;2.10;;
3718;SDS011;1875;52.492;6.860;2023-04-02T07:23:45;3.07;;;1.63;;
3718;SDS011;1875;52.492;6.860;2023-04-02T07:26:13;5.53;;;1.90;;
3718;SDS011;1875;52.492;6.860;2023-04-02T07:28:43;4.77;;;1.90;;
3718;SDS011;1875;52.492;6.860;2023-04-02T07:31:14;8.50;;;2.33;;
3718;SDS011;1875;52.492;6.860;2023-04-02T07:33:44;3.33;;;2.03;;
3718;SDS011;1875;52.492;6.860;2023-04-02T07:36:13;2.93;;;1.43;;
3718;SDS011;1875;52.492;6.860;2023-04-02T07:38:41;6.77;;;2.10;;
3718;SDS011;1875;52.492;6.860;2023-04-02T07:41:11;4.67;;;2.03;;
3718;SDS011;1875;52.492;6.860;2023-04-02T07:43:39;3.23;;;1.70;;
3718;SDS011;1875;52.492;6.860;2023-04-02T07:46:08;5.50;;;2.07;;
3718;SDS011;1875;52.492;6.860;2023-04-02T07:48:37;2.17;;;1.60;;
3718;SDS011;1875;52.492;6.860;2023-04-02T07:51:11;5.27;;;1.87;;
3718;SDS011;1875;52.492;6.860;2023-04-02T07:53:41;4.10;;;1.83;;
3718;SDS011;1875;52.492;6.860;2023-04-02T07:56:13;4.93;;;1.83;;
3718;SDS011;1875;52.492;6.860;2023-04-02T07:58:42;10.43;;;2.40;;
3718;SDS011;1875;52.492;6.860;2023-04-02T08:01:14;6.70;;;2.00;;
3718;SDS011;1875;52.492;6.860;2023-04-02T08:03:43;8.00;;;2.20;;
3718;SDS011;1875;52.492;6.860;2023-04-02T08:06:11;3.10;;;1.50;;
3718;SDS011;1875;52.492;6.860;2023-04-02T08:08:39;4.33;;;1.33;;
3718;SDS011;1875;52.492;6.860;2023-04-02T08:11:07;5.30;;;1.83;;
3718;SDS011;1875;52.492;6.860;2023-04-02T08:13:37;3.53;;;1.73;;
3718;SDS011;1875;52.492;6.860;2023-04-02T08:16:05;6.20;;;2.33;;
3718;SDS011;1875;52.492;6.860;2023-04-02T08:18:33;2.83;;;1.80;;
3718;SDS011;1875;52.492;6.860;2023-04-02T08:21:02;5.60;;;1.83;;
3718;SDS011;1875;52.492;6.860;2023-04-02T08:23:31;2.03;;;1.20;;
3718;SDS011;1875;52.492;6.860;2023-04-02T08:26:00;2.80;;;1.50;;
3718;SDS011;1875;52.492;6.860;2023-04-02T08:28:28;7.37;;;2.47;;
3718;SDS011;1875;52.492;6.860;2023-04-02T08:30:57;6.77;;;1.73;;
3718;SDS011;1875;52.492;6.860;2023-04-02T08:33:25;4.87;;;1.93;;
3718;SDS011;1875;52.492;6.860;2023-04-02T08:35:52;6.33;;;1.70;;
3718;SDS011;1875;52.492;6.860;2023-04-02T08:38:20;3.60;;;1.70;;
3718;SDS011;1875;52.492;6.860;2023-04-02T08:40:49;3.43;;;1.87;;
3718;SDS011;1875;52.492;6.860;2023-04-02T08:46:10;4.57;;;2.13;;
3718;SDS011;1875;52.492;6.860;2023-04-02T08:48:42;4.47;;;1.43;;
3718;SDS011;1875;52.492;6.860;2023-04-02T08:51:16;2.93;;;1.67;;
3718;SDS011;1875;52.492;6.860;2023-04-02T08:53:48;6.53;;;1.43;;
3718;SDS011;1875;52.492;6.860;2023-04-02T08:56:17;5.07;;;1.77;;
3718;SDS011;1875;52.492;6.860;2023-04-02T08:58:48;6.00;;;1.53;;
3718;SDS011;1875;52.492;6.860;2023-04-02T09:01:22;3.83;;;1.47;;
3718;SDS011;1875;52.492;6.860;2023-04-02T09:03:57;2.63;;;1.60;;
3718;SDS011;1875;52.492;6.860;2023-04-02T09:06:25;3.00;;;1.30;;
3718;SDS011;1875;52.492;6.860;2023-04-02T09:08:54;6.73;;;1.80;;
3718;SDS011;1875;52.492;6.860;2023-04-02T09:11:23;4.37;;;1.63;;
3718;SDS011;1875;52.492;6.860;2023-04-02T09:13:53;10.17;;;2.33;;
3718;SDS011;1875;52.492;6.860;2023-04-02T09:16:25;3.13;;;1.37;;
3718;SDS011;1875;52.492;6.860;2023-04-02T09:19:01;6.37;;;1.40;;
3718;SDS011;1875;52.492;6.860;2023-04-02T09:21:30;4.13;;;1.33;;
3718;SDS011;1875;52.492;6.860;2023-04-02T09:24:01;4.37;;;1.60;;
3718;SDS011;1875;52.492;6.860;2023-04-02T09:26:31;3.23;;;1.47;;
3718;SDS011;1875;52.492;6.860;2023-04-02T09:29:00;7.10;;;1.77;;
3718;SDS011;1875;52.492;6.860;2023-04-02T09:31:35;5.93;;;1.70;;
3718;SDS011;1875;52.492;6.860;2023-04-02T09:36:53;4.20;;;1.80;;
3718;SDS011;1875;52.492;6.860;2023-04-02T09:39:22;5.53;;;1.60;;
3718;SDS011;1875;52.492;6.860;2023-04-02T09:41:52;4.13;;;1.27;;
3718;SDS011;1875;52.492;6.860;2023-04-02T09:44:31;4.97;;;1.30;;
3718;SDS011;1875;52.492;6.860;2023-04-02T09:47:00;5.50;;;1.93;;
3718;SDS011;1875;52.492;6.860;2023-04-02T09:49:31;6.93;;;1.87;;
3718;SDS011;1875;52.492;6.860;2023-04-02T09:52:20;3.30;;;1.80;;
3718;SDS011;1875;52.492;6.860;2023-04-02T09:57:48;3.87;;;2.03;;
3718;SDS011;1875;52.492;6.860;2023-04-02T10:00:18;4.90;;;2.03;;
3718;SDS011;1875;52.492;6.860;2023-04-02T10:03:00;2.73;;;1.20;;
3718;SDS011;1875;52.492;6.860;2023-04-02T10:05:30;2.47;;;1.87;;
3718;SDS011;1875;52.492;6.860;2023-04-02T10:08:08;4.53;;;1.83;;
3718;SDS011;1875;52.492;6.860;2023-04-02T10:10:43;4.50;;;1.50;;
3718;SDS011;1875;52.492;6.860;2023-04-02T10:13:16;4.50;;;1.37;;
3718;SDS011;1875;52.492;6.860;2023-04-02T10:15:47;5.60;;;1.30;;
3718;SDS011;1875;52.492;6.860;2023-04-02T10:18:21;6.27;;;1.80;;
3718;SDS011;1875;52.492;6.860;2023-04-02T10:20:53;5.93;;;2.17;;
3718;SDS011;1875;52.492;6.860;2023-04-02T10:23:22;2.37;;;1.43;;
3718;SDS011;1875;52.492;6.860;2023-04-02T10:25:52;3.87;;;2.10;;
3718;SDS011;1875;52.492;6.860;2023-04-02T10:28:24;3.50;;;1.40;;
3718;SDS011;1875;52.492;6.860;2023-04-02T10:30:59;4.80;;;1.63;;
3718;SDS011;1875;52.492;6.860;2023-04-02T10:33:34;3.70;;;1.60;;
3718;SDS011;1875;52.492;6.860;2023-04-02T10:36:06;3.80;;;1.43;;
3718;SDS011;1875;52.492;6.860;2023-04-02T10:38:38;8.17;;;1.63;;
3718;SDS011;1875;52.492;6.860;2023-04-02T10:41:18;3.47;;;1.53;;
3718;SDS011;1875;52.492;6.860;2023-04-02T10:43:56;7.07;;;1.77;;
3718;SDS011;1875;52.492;6.860;2023-04-02T10:46:46;7.17;;;1.80;;
3718;SDS011;1875;52.492;6.860;2023-04-02T10:49:21;4.67;;;1.37;;
3718;SDS011;1875;52.492;6.860;2023-04-02T10:51:54;5.77;;;2.60;;
3718;SDS011;1875;52.492;6.860;2023-04-02T10:57:17;4.63;;;2.33;;
3718;SDS011;1875;52.492;6.860;2023-04-02T10:59:50;2.63;;;1.60;;
3718;SDS011;1875;52.492;6.860;2023-04-02T11:02:31;3.33;;;2.20;;
3718;SDS011;1875;52.492;6.860;2023-04-02T11:05:10;3.70;;;1.53;;
3718;SDS011;1875;52.492;6.860;2023-04-02T11:07:44;1.73;;;1.13;;
3718;SDS011;1875;52.492;6.860;2023-04-02T11:10:18;4.43;;;1.43;;
3718;SDS011;1875;52.492;6.860;2023-04-02T11:12:48;2.63;;;1.37;;
3718;SDS011;1875;52.492;6.860;2023-04-02T11:15:19;2.67;;;1.30;;
3718;SDS011;1875;52.492;6.860;2023-04-02T11:17:47;7.63;;;1.43;;
3718;SDS011;1875;52.492;6.860;2023-04-02T11:23:16;4.10;;;1.40;;
3718;SDS011;1875;52.492;6.860;2023-04-02T11:25:44;7.83;;;1.60;;
3718;SDS011;1875;52.492;6.860;2023-04-02T11:28:17;5.17;;;1.80;;
3718;SDS011;1875;52.492;6.860;2023-04-02T11:30:51;4.23;;;1.00;;
3718;SDS011;1875;52.492;6.860;2023-04-02T11:33:24;5.57;;;1.53;;
3718;SDS011;1875;52.492;6.860;2023-04-02T11:39:16;3.00;;;1.40;;
3718;SDS011;1875;52.492;6.860;2023-04-02T11:42:22;5.97;;;1.37;;
3718;SDS011;1875;52.492;6.860;2023-04-02T11:44:51;4.10;;;1.67;;
3718;SDS011;1875;52.492;6.860;2023-04-02T11:47:20;4.10;;;1.90;;
3718;SDS011;1875;52.492;6.860;2023-04-02T11:49:55;5.70;;;1.50;;
3718;SDS011;1875;52.492;6.860;2023-04-02T11:52:37;2.37;;;1.30;;
3718;SDS011;1875;52.492;6.860;2023-04-02T11:55:22;8.47;;;1.57;;
3718;SDS011;1875;52.492;6.860;2023-04-02T11:58:01;2.27;;;1.23;;
3718;SDS011;1875;52.492;6.860;2023-04-02T12:00:49;6.63;;;1.67;;
3718;SDS011;1875;52.492;6.860;2023-04-02T12:03:46;2.13;;;1.10;;
3718;SDS011;1875;52.492;6.860;2023-04-02T12:06:21;6.47;;;1.83;;
3718;SDS011;1875;52.492;6.860;2023-04-02T12:08:56;3.47;;;1.13;;
3718;SDS011;1875;52.492;6.860;2023-04-02T12:11:33;2.83;;;1.10;;
3718;SDS011;1875;52.492;6.860;2023-04-02T12:14:05;3.13;;;1.40;;
3718;SDS011;1875;52.492;6.860;2023-04-02T12:16:54;6.83;;;1.70;;
3718;SDS011;1875;52.492;6.860;2023-04-02T12:19:22;3.30;;;1.67;;
3718;SDS011;1875;52.492;6.860;2023-04-02T12:21:50;5.00;;;1.60;;
3718;SDS011;1875;52.492;6.860;2023-04-02T12:24:20;4.17;;;1.70;;
3718;SDS011;1875;52.492;6.860;2023-04-02T12:26:50;4.20;;;1.70;;
3718;SDS011;1875;52.492;6.860;2023-04-02T12:29:33;3.23;;;1.43;;
3718;SDS011;1875;52.492;6.860;2023-04-02T12:32:04;1.93;;;1.13;;
3718;SDS011;1875;52.492;6.860;2023-04-02T12:34:45;2.47;;;1.50;;
3718;SDS011;1875;52.492;6.860;2023-04-02T12:37:18;5.07;;;2.00;;
3718;SDS011;1875;52.492;6.860;2023-04-02T12:39:51;3.20;;;1.60;;
3718;SDS011;1875;52.492;6.860;2023-04-02T12:42:27;2.30;;;1.50;;
3718;SDS011;1875;52.492;6.860;2023-04-02T12:44:57;3.50;;;1.57;;
3718;SDS011;1875;52.492;6.860;2023-04-02T12:47:26;5.87;;;1.80;;
3718;SDS011;1875;52.492;6.860;2023-04-02T12:49:54;5.57;;;2.03;;
3718;SDS011;1875;52.492;6.860;2023-04-02T12:52:24;5.53;;;1.93;;
3718;SDS011;1875;52.492;6.860;2023-04-02T12:54:54;4.47;;;1.47;;
3718;SDS011;1875;52.492;6.860;2023-04-02T12:57:33;4.43;;;1.43;;
3718;SDS011;1875;52.492;6.860;2023-04-02T13:00:27;2.30;;;1.10;;
3718;SDS011;1875;52.492;6.860;2023-04-02T13:02:58;6.53;;;2.03;;
3718;SDS011;1875;52.492;6.860;2023-04-02T13:05:32;3.90;;;1.30;;
3718;SDS011;1875;52.492;6.860;2023-04-02T13:08:01;5.40;;;1.87;;
3718;SDS011;1875;52.492;6.860;2023-04-02T13:10:30;7.27;;;2.30;;
3718;SDS011;1875;52.492;6.860;2023-04-02T13:13:00;4.20;;;1.60;;
3718;SDS011;1875;52.492;6.860;2023-04-02T13:15:29;3.97;;;1.50;;
3718;SDS011;1875;52.492;6.860;2023-04-02T13:18:02;3.37;;;1.50;;
3718;SDS011;1875;52.492;6.860;2023-04-02T13:20:32;6.77;;;2.27;;
3718;SDS011;1875;52.492;6.860;2023-04-02T13:23:01;2.30;;;1.20;;
3718;SDS011;1875;52.492;6.860;2023-04-02T13:25:49;2.60;;;1.30;;
3718;SDS011;1875;52.492;6.860;2023-04-02T13:28:18;1.43;;;1.10;;
3718;SDS011;1875;52.492;6.860;2023-04-02T13:30:46;4.97;;;1.40;;
3718;SDS011;1875;52.492;6.860;2023-04-02T13:33:14;1.70;;;1.00;;
3718;SDS011;1875;52.492;6.860;2023-04-02T13:35:42;5.97;;;2.60;;
3718;SDS011;1875;52.492;6.860;2023-04-02T13:38:11;3.03;;;1.43;;
3718;SDS011;1875;52.492;6.860;2023-04-02T13:40:39;4.80;;;1.60;;
3718;SDS011;1875;52.492;6.860;2023-04-02T13:43:06;3.27;;;2.00;;
3718;SDS011;1875;52.492;6.860;2023-04-02T13:45:38;3.20;;;1.50;;
3718;SDS011;1875;52.492;6.860;2023-04-02T13:48:08;5.50;;;1.40;;
3718;SDS011;1875;52.492;6.860;2023-04-02T13:50:40;4.10;;;1.47;;
3718;SDS011;1875;52.492;6.860;2023-04-02T13:53:12;4.10;;;1.57;;
3718;SDS011;1875;52.492;6.860;2023-04-02T13:55:45;2.83;;;1.50;;
3718;SDS011;1875;52.492;6.860;2023-04-02T13:58:12;4.07;;;1.70;;
3718;SDS011;1875;52.492;6.860;2023-04-02T14:00:42;5.10;;;2.30;;
3718;SDS011;1875;52.492;6.860;2023-04-02T14:03:10;3.00;;;1.63;;
3718;SDS011;1875;52.492;6.860;2023-04-02T14:05:41;4.80;;;1.73;;
3718;SDS011;1875;52.492;6.860;2023-04-02T14:08:15;3.33;;;1.30;;
3718;SDS011;1875;52.492;6.860;2023-04-02T14:10:51;7.07;;;1.50;;
3718;SDS011;1875;52.492;6.860;2023-04-02T14:13:29;1.90;;;1.00;;
3718;SDS011;1875;52.492;6.860;2023-04-02T14:16:07;5.87;;;1.33;;
3718;SDS011;1875;52.492;6.860;2023-04-02T14:18:46;2.17;;;1.40;;
3718;SDS011;1875;52.492;6.860;2023-04-02T14:21:34;3.90;;;1.40;;
3718;SDS011;1875;52.492;6.860;2023-04-02T14:24:10;2.80;;;1.20;;
3718;SDS011;1875;52.492;6.860;2023-04-02T14:26:46;3.20;;;1.13;;
3718;SDS011;1875;52.492;6.860;2023-04-02T14:29:19;3.33;;;1.53;;
3718;SDS011;1875;52.492;6.860;2023-04-02T14:31:57;2.77;;;2.03;;
3718;SDS011;1875;52.492;6.860;2023-04-02T14:34:30;3.53;;;1.60;;
3718;SDS011;1875;52.492;6.860;2023-04-02T14:37:03;5.00;;;1.50;;
3718;SDS011;1875;52.492;6.860;2023-04-02T14:39:40;2.43;;;1.47;;
3718;SDS011;1875;52.492;6.860;2023-04-02T14:42:11;2.60;;;1.50;;
3718;SDS011;1875;52.492;6.860;2023-04-02T14:44:42;2.73;;;1.40;;
3718;SDS011;1875;52.492;6.860;2023-04-02T14:47:16;5.00;;;2.33;;
3718;SDS011;1875;52.492;6.860;2023-04-02T14:49:47;5.83;;;2.20;;
3718;SDS011;1875;52.492;6.860;2023-04-02T14:52:20;3.73;;;1.37;;
3718;SDS011;1875;52.492;6.860;2023-04-02T14:54:49;13.63;;;6.70;;
3718;SDS011;1875;52.492;6.860;2023-04-02T14:57:21;4.00;;;2.50;;
3718;SDS011;1875;52.492;6.860;2023-04-02T14:59:51;2.93;;;2.17;;
3718;SDS011;1875;52.492;6.860;2023-04-02T15:02:26;2.23;;;1.23;;
3718;SDS011;1875;52.492;6.860;2023-04-02T15:05:02;1.70;;;1.50;;
3718;SDS011;1875;52.492;6.860;2023-04-02T15:07:35;3.87;;;1.97;;
3718;SDS011;1875;52.492;6.860;2023-04-02T15:10:06;5.60;;;1.40;;
3718;SDS011;1875;52.492;6.860;2023-04-02T15:12:41;2.80;;;1.23;;
3718;SDS011;1875;52.492;6.860;2023-04-02T15:15:13;3.23;;;1.23;;
3718;SDS011;1875;52.492;6.860;2023-04-02T15:18:04;2.63;;;1.53;;
3718;SDS011;1875;52.492;6.860;2023-04-02T15:20:36;2.20;;;1.10;;
3718;SDS011;1875;52.492;6.860;2023-04-02T15:23:06;3.43;;;1.20;;
3718;SDS011;1875;52.492;6.860;2023-04-02T15:25:41;3.27;;;1.17;;
3718;SDS011;1875;52.492;6.860;2023-04-02T15:28:16;2.30;;;1.30;;
3718;SDS011;1875;52.492;6.860;2023-04-02T15:30:49;3.37;;;1.60;;
3718;SDS011;1875;52.492;6.860;2023-04-02T15:33:25;5.37;;;1.40;;
3718;SDS011;1875;52.492;6.860;2023-04-02T15:35:59;3.17;;;1.40;;
3718;SDS011;1875;52.492;6.860;2023-04-02T15:38:40;2.83;;;1.50;;
3718;SDS011;1875;52.492;6.860;2023-04-02T15:41:12;5.13;;;1.57;;
3718;SDS011;1875;52.492;6.860;2023-04-02T15:43:42;6.43;;;1.20;;
3718;SDS011;1875;52.492;6.860;2023-04-02T15:46:14;4.00;;;1.30;;
3718;SDS011;1875;52.492;6.860;2023-04-02T15:48:52;0.93;;;0.80;;
3718;SDS011;1875;52.492;6.860;2023-04-02T15:54:31;7.97;;;1.50;;
3718;SDS011;1875;52.492;6.860;2023-04-02T15:57:09;3.57;;;2.00;;
3718;SDS011;1875;52.492;6.860;2023-04-02T15:59:48;2.63;;;1.33;;
3718;SDS011;1875;52.492;6.860;2023-04-02T16:05:20;5.70;;;1.40;;
3718;SDS011;1875;52.492;6.860;2023-04-02T16:07:58;1.67;;;1.20;;
3718;SDS011;1875;52.492;6.860;2023-04-02T16:10:35;1.90;;;1.30;;
3718;SDS011;1875;52.492;6.860;2023-04-02T16:13:10;2.37;;;1.10;;